createdAt,value
2022-10-08T00:00:38.248Z,48.70
2022-10-08T00:03:12.063Z,49.20
2022-10-08T00:05:56.591Z,48.90
2022-10-08T00:08:32.373Z,49.40
2022-10-08T00:11:11.028Z,49.20
2022-10-08T00:13:48.181Z,49.40
2022-10-08T00:16:24.599Z,49.20
2022-10-08T00:19:01.257Z,49.20
2022-10-08T00:21:38.027Z,49.20
2022-10-08T00:24:15.383Z,49.20
2022-10-08T00:26:49.195Z,49.30
2022-10-08T00:29:22.966Z,49.40
2022-10-08T00:31:57.308Z,49.70
2022-10-08T00:34:31.191Z,49.30
2022-10-08T00:37:06.119Z,49.90
2022-10-08T00:39:40.034Z,49.70
2022-10-08T00:42:14.775Z,49.40
2022-10-08T00:44:57.346Z,50.00
2022-10-08T00:47:43.614Z,49.50
2022-10-08T00:50:23.812Z,49.50
2022-10-08T00:53:03.086Z,49.60
2022-10-08T00:55:43.318Z,49.50
2022-10-08T00:58:20.659Z,49.60
2022-10-08T01:00:55.202Z,49.60
2022-10-08T01:03:29.057Z,49.70
2022-10-08T01:06:14.475Z,49.70
2022-10-08T01:08:56.011Z,49.70
2022-10-08T01:11:40.232Z,49.70
2022-10-08T01:14:21.036Z,49.80
2022-10-08T01:17:04.122Z,50.10
2022-10-08T01:20:08.517Z,49.80
2022-10-08T01:23:05.284Z,49.90
2022-10-08T01:25:53.762Z,49.90
2022-10-08T01:28:33.858Z,50.00
2022-10-08T01:31:11.854Z,49.80
2022-10-08T01:33:51.016Z,49.80
2022-10-08T01:36:26.176Z,49.80
2022-10-08T01:39:03.152Z,49.80
2022-10-08T01:41:37.636Z,49.90
2022-10-08T01:44:17.085Z,49.90
2022-10-08T01:46:52.803Z,49.90
2022-10-08T01:49:31.827Z,50.00
2022-10-08T01:52:09.880Z,50.00
2022-10-08T01:54:47.309Z,50.10
2022-10-08T01:57:21.776Z,50.10
2022-10-08T02:00:01.766Z,50.10
2022-10-08T02:02:45.971Z,50.30
2022-10-08T02:05:20.145Z,50.20
2022-10-08T02:07:54.388Z,50.10
2022-10-08T02:10:28.297Z,50.20
2022-10-08T02:13:02.276Z,50.30
2022-10-08T02:15:44.034Z,50.10
2022-10-08T02:18:21.136Z,50.20
2022-10-08T02:21:00.397Z,50.10
2022-10-08T02:23:42.449Z,50.20
2022-10-08T02:26:21.459Z,50.10
2022-10-08T02:29:00.945Z,50.10
2022-10-08T02:31:40.943Z,50.20
2022-10-08T02:34:18.599Z,50.20
2022-10-08T02:36:58.047Z,50.20
2022-10-08T02:39:35.571Z,50.20
2022-10-08T02:42:13.004Z,50.20
2022-10-08T02:44:51.710Z,50.20
2022-10-08T02:47:30.568Z,50.20
2022-10-08T02:50:09.952Z,50.20
2022-10-08T02:52:46.324Z,50.20
2022-10-08T02:55:34.461Z,50.30
2022-10-08T02:58:12.098Z,50.40
2022-10-08T03:00:52.754Z,50.30
2022-10-08T03:03:33.309Z,50.30
2022-10-08T03:06:09.952Z,50.30
2022-10-08T03:08:49.307Z,50.30
2022-10-08T03:11:23.527Z,50.30
2022-10-08T03:13:59.421Z,50.30
2022-10-08T03:16:39.153Z,50.30
2022-10-08T03:19:16.823Z,50.40
2022-10-08T03:21:54.981Z,50.40
2022-10-08T03:24:28.823Z,50.40
2022-10-08T03:27:02.787Z,50.40
2022-10-08T03:29:36.823Z,50.40
2022-10-08T03:32:10.805Z,50.40
2022-10-08T03:34:46.075Z,50.70
2022-10-08T03:37:20.106Z,50.50
2022-10-08T03:39:53.955Z,50.50
2022-10-08T03:42:27.502Z,50.40
2022-10-08T03:45:01.621Z,50.70
2022-10-08T03:47:35.444Z,50.50
2022-10-08T03:50:11.111Z,50.50
2022-10-08T03:52:45.228Z,50.80
2022-10-08T03:55:19.608Z,50.60
2022-10-08T03:57:53.491Z,50.60
2022-10-08T04:00:27.309Z,50.60
2022-10-08T04:03:00.876Z,50.60
2022-10-08T04:05:36.182Z,50.70
2022-10-08T04:08:10.000Z,50.60
2022-10-08T04:10:43.566Z,50.70
2022-10-08T04:13:18.002Z,51.00
2022-10-08T04:15:51.951Z,50.70
2022-10-08T04:18:25.797Z,50.70
2022-10-08T04:21:01.075Z,50.70
2022-10-08T04:23:36.434Z,51.00
2022-10-08T04:26:11.779Z,50.90
2022-10-08T04:28:48.228Z,50.90
2022-10-08T04:31:24.555Z,50.80
2022-10-08T04:33:58.507Z,50.90
2022-10-08T04:36:34.292Z,50.90
2022-10-08T04:39:08.246Z,50.90
2022-10-08T04:41:42.116Z,50.90
2022-10-08T04:44:15.929Z,50.90
2022-10-08T04:46:49.570Z,50.90
2022-10-08T04:49:23.458Z,51.30
2022-10-08T04:51:58.450Z,50.90
2022-10-08T04:54:32.305Z,51.00
2022-10-08T04:57:06.414Z,51.00
2022-10-08T04:59:59.486Z,51.00
2022-10-08T05:02:34.375Z,50.90
2022-10-08T05:05:08.860Z,51.00
2022-10-08T05:07:44.258Z,51.00
2022-10-08T05:10:18.282Z,51.00
2022-10-08T05:12:52.133Z,51.00
2022-10-08T05:15:25.687Z,51.10
2022-10-08T05:17:59.625Z,51.10
2022-10-08T05:20:33.537Z,51.00
2022-10-08T05:23:08.500Z,51.40
2022-10-08T05:25:42.292Z,50.70
2022-10-08T05:28:16.187Z,50.70
2022-10-08T05:30:50.133Z,50.60
2022-10-08T05:33:24.240Z,50.50
2022-10-08T05:35:58.266Z,50.40
2022-10-08T05:38:35.174Z,50.30
2022-10-08T05:41:11.481Z,50.30
2022-10-08T05:43:46.229Z,50.20
2022-10-08T05:46:20.641Z,49.20
2022-10-08T05:48:55.086Z,46.80
2022-10-08T05:51:29.946Z,46.30
2022-10-08T05:54:05.317Z,45.70
2022-10-08T05:56:39.194Z,46.30
2022-10-08T05:59:18.255Z,46.80
2022-10-08T06:01:53.002Z,47.00
2022-10-08T06:04:26.832Z,47.30
2022-10-08T06:07:00.401Z,47.40
2022-10-08T06:09:35.705Z,47.40
2022-10-08T06:12:10.169Z,47.50
2022-10-08T06:14:44.048Z,47.70
2022-10-08T06:17:17.664Z,48.00
2022-10-08T06:19:51.690Z,47.90
2022-10-08T06:22:25.595Z,48.50
2022-10-08T06:25:00.836Z,48.80
2022-10-08T06:27:34.680Z,48.90
2022-10-08T06:30:08.723Z,49.10
2022-10-08T06:32:42.537Z,49.40
2022-10-08T06:35:16.190Z,49.40
2022-10-08T06:37:51.185Z,49.70
2022-10-08T06:40:26.474Z,49.50
2022-10-08T06:43:00.458Z,49.40
2022-10-08T06:45:34.551Z,49.40
2022-10-08T06:48:08.634Z,49.50
2022-10-08T06:50:43.924Z,49.30
2022-10-08T06:53:17.789Z,49.20
2022-10-08T06:55:57.859Z,49.00
2022-10-08T06:58:32.172Z,48.80
2022-10-08T07:01:08.159Z,48.70
2022-10-08T07:03:42.181Z,48.60
2022-10-08T07:06:16.227Z,48.60
2022-10-08T07:08:54.198Z,48.50
2022-10-08T07:11:30.410Z,48.50
2022-10-08T07:14:04.522Z,48.40
2022-10-08T07:16:38.492Z,48.40
2022-10-08T07:19:12.524Z,48.30
2022-10-08T07:21:46.455Z,48.20
2022-10-08T07:24:20.461Z,48.20
2022-10-08T07:26:55.808Z,48.40
2022-10-08T07:29:29.909Z,48.40
2022-10-08T07:32:04.014Z,48.50
2022-10-08T07:34:38.093Z,48.80
2022-10-08T07:37:12.223Z,48.00
2022-10-08T07:39:46.439Z,47.60
2022-10-08T07:42:22.074Z,47.80
2022-10-08T07:44:55.952Z,48.30
2022-10-08T07:47:30.226Z,48.40
2022-10-08T07:50:04.566Z,48.50
2022-10-08T07:52:38.673Z,48.80
2022-10-08T07:55:12.769Z,49.20
2022-10-08T07:57:48.171Z,48.50
2022-10-08T08:00:26.058Z,48.30
2022-10-08T08:03:00.346Z,48.20
2022-10-08T08:05:36.380Z,48.30
2022-10-08T08:08:11.338Z,47.90
2022-10-08T08:10:45.329Z,47.80
2022-10-08T08:13:20.888Z,47.70
2022-10-08T08:15:59.447Z,47.70
2022-10-08T08:18:35.225Z,47.70
2022-10-08T08:21:11.196Z,47.50
2022-10-08T08:23:48.361Z,47.50
2022-10-08T08:26:23.906Z,47.40
2022-10-08T08:29:02.917Z,47.50
2022-10-08T08:31:39.024Z,47.80
2022-10-08T08:34:15.508Z,47.80
2022-10-08T08:36:51.344Z,47.90
2022-10-08T08:39:26.857Z,47.80
2022-10-08T08:42:17.646Z,48.00
2022-10-08T08:44:59.953Z,47.80
2022-10-08T08:47:37.927Z,48.00
2022-10-08T08:50:25.121Z,48.00
2022-10-08T08:52:59.488Z,47.80
2022-10-08T08:55:40.705Z,48.10
2022-10-08T08:58:25.851Z,48.50
2022-10-08T09:01:07.722Z,48.40
2022-10-08T09:03:45.373Z,48.40
2022-10-08T09:06:23.377Z,48.30
2022-10-08T09:09:02.006Z,48.10
2022-10-08T09:11:38.344Z,48.10
2022-10-08T09:14:29.280Z,48.10
2022-10-08T09:17:15.256Z,48.10
2022-10-08T09:19:50.862Z,48.20
2022-10-08T09:22:28.034Z,48.60
2022-10-08T09:25:04.523Z,48.20
2022-10-08T09:27:46.377Z,48.10
2022-10-08T09:30:32.896Z,48.20
2022-10-08T09:33:25.230Z,48.20
2022-10-08T09:35:59.604Z,48.30
2022-10-08T09:38:38.448Z,48.30
2022-10-08T09:41:19.831Z,48.30
2022-10-08T09:44:12.595Z,48.10
2022-10-08T09:46:47.753Z,48.00
2022-10-08T09:49:31.743Z,48.00
2022-10-08T09:52:10.591Z,48.00
2022-10-08T09:54:49.715Z,48.10
2022-10-08T09:57:24.181Z,48.10
2022-10-08T10:00:00.400Z,48.00
2022-10-08T10:02:36.506Z,48.00
2022-10-08T10:05:25.096Z,48.10
2022-10-08T10:07:59.050Z,48.20
2022-10-08T10:10:37.341Z,48.30
2022-10-08T10:13:15.537Z,48.50
2022-10-08T10:15:53.603Z,48.50
2022-10-08T10:18:32.090Z,48.60
2022-10-08T10:21:15.686Z,48.80
2022-10-08T10:23:58.565Z,49.00
2022-10-08T10:26:38.551Z,49.20
2022-10-08T10:29:17.350Z,49.80
2022-10-08T10:31:55.902Z,50.40
2022-10-08T10:34:31.907Z,50.80
2022-10-08T10:37:11.557Z,50.70
2022-10-08T10:39:51.207Z,51.20
2022-10-08T10:42:36.618Z,51.40
2022-10-08T10:45:20.061Z,51.60
2022-10-08T10:47:55.776Z,51.80
2022-10-08T10:50:38.212Z,51.80
2022-10-08T10:53:22.284Z,54.40
2022-10-08T10:56:06.805Z,55.90
2022-10-08T10:59:03.188Z,56.10
2022-10-08T11:01:45.772Z,56.40
2022-10-08T11:04:28.463Z,56.10
2022-10-08T11:07:07.307Z,58.60
2022-10-08T11:09:51.137Z,60.30
2022-10-08T11:12:35.389Z,56.70
2022-10-08T11:15:23.940Z,53.00
2022-10-08T11:18:13.752Z,55.10
2022-10-08T11:21:05.672Z,53.70
2022-10-08T11:23:59.288Z,55.70
2022-10-08T11:26:40.547Z,55.80
2022-10-08T11:29:20.878Z,55.60
2022-10-08T11:31:54.924Z,55.60
2022-10-08T11:34:31.684Z,54.80
2022-10-08T11:37:13.377Z,54.20
2022-10-08T11:39:54.182Z,53.50
2022-10-08T11:42:48.130Z,53.10
2022-10-08T11:45:33.163Z,52.70
2022-10-08T11:48:32.303Z,52.40
2022-10-08T11:51:35.072Z,51.70
2022-10-08T11:54:26.449Z,51.60
2022-10-08T11:57:21.497Z,51.40
2022-10-08T12:00:09.999Z,51.40
2022-10-08T12:02:46.488Z,50.90
2022-10-08T12:05:48.017Z,50.80
2022-10-08T12:08:53.361Z,50.80
2022-10-08T12:11:53.398Z,50.60
2022-10-08T12:14:48.596Z,50.40
2022-10-08T12:17:24.172Z,50.60
2022-10-08T12:20:19.483Z,50.60
2022-10-08T12:23:06.212Z,50.50
2022-10-08T12:25:44.397Z,50.50
2022-10-08T12:28:46.926Z,51.00
2022-10-08T12:31:32.716Z,51.80
2022-10-08T12:34:18.238Z,52.20
2022-10-08T12:37:02.504Z,52.10
2022-10-08T12:39:39.558Z,52.00
2022-10-08T12:42:20.105Z,52.30
2022-10-08T12:45:06.410Z,52.60
2022-10-08T12:47:48.234Z,52.50
2022-10-08T12:50:36.617Z,53.10
2022-10-08T12:53:15.554Z,53.70
2022-10-08T12:55:53.819Z,54.00
2022-10-08T12:58:30.722Z,54.20
2022-10-08T13:01:06.727Z,54.00
2022-10-08T13:03:40.779Z,54.10
2022-10-08T13:06:30.501Z,54.00
2022-10-08T13:09:29.128Z,53.80
2022-10-08T13:12:05.270Z,53.50
2022-10-08T13:14:40.581Z,53.50
2022-10-08T13:17:29.466Z,53.50
2022-10-08T13:20:09.351Z,53.20
2022-10-08T13:22:45.081Z,53.10
2022-10-08T13:25:39.909Z,53.00
2022-10-08T13:28:16.425Z,52.70
2022-10-08T13:30:53.639Z,52.80
2022-10-08T13:33:31.156Z,52.90
2022-10-08T13:36:05.256Z,53.10
2022-10-08T13:38:43.550Z,53.20
2022-10-08T13:41:25.281Z,53.30
2022-10-08T13:43:59.513Z,53.40
2022-10-08T13:46:33.430Z,53.30
2022-10-08T13:49:20.480Z,53.10
2022-10-08T13:51:54.487Z,52.90
2022-10-08T13:54:31.786Z,52.90
2022-10-08T13:57:05.859Z,52.80
2022-10-08T13:59:39.921Z,52.40
2022-10-08T14:02:15.516Z,51.20
2022-10-08T14:04:49.489Z,50.40
2022-10-08T14:07:27.513Z,50.00
2022-10-08T14:10:03.930Z,49.50
2022-10-08T14:12:37.903Z,48.80
2022-10-08T14:15:14.141Z,48.70
2022-10-08T14:17:49.742Z,48.70
2022-10-08T14:20:24.069Z,48.60
2022-10-08T14:22:58.314Z,48.80
2022-10-08T14:25:33.863Z,48.70
2022-10-08T14:28:08.089Z,48.30
2022-10-08T14:30:42.064Z,48.20
2022-10-08T14:33:16.377Z,48.30
2022-10-08T14:35:53.786Z,48.50
2022-10-08T14:38:32.814Z,48.50
2022-10-08T14:41:09.107Z,48.50
2022-10-08T14:43:43.154Z,48.50
2022-10-08T14:46:17.122Z,48.50
2022-10-08T14:48:51.138Z,48.60
2022-10-08T14:51:25.105Z,48.50
2022-10-08T14:53:59.055Z,48.50
2022-10-08T14:56:34.766Z,48.60
2022-10-08T14:59:08.771Z,48.50
2022-10-08T15:01:42.809Z,48.50
2022-10-08T15:04:17.102Z,48.50
2022-10-08T15:06:51.207Z,48.60
2022-10-08T15:09:25.226Z,48.50
2022-10-08T15:12:00.601Z,48.50
2022-10-08T15:14:38.174Z,48.60
2022-10-08T15:17:12.785Z,48.50
2022-10-08T15:19:47.008Z,48.50
2022-10-08T15:22:21.620Z,48.90
2022-10-08T15:24:55.568Z,49.30
2022-10-08T15:27:30.971Z,49.50
2022-10-08T15:30:05.658Z,49.70
2022-10-08T15:32:40.288Z,49.80
2022-10-08T15:35:14.283Z,49.70
2022-10-08T15:37:48.249Z,49.70
2022-10-08T15:40:22.171Z,50.90
2022-10-08T15:42:57.743Z,51.70
2022-10-08T15:45:31.773Z,51.60
2022-10-08T15:48:06.271Z,51.40
2022-10-08T15:50:40.474Z,51.50
2022-10-08T15:53:14.407Z,51.90
2022-10-08T15:55:56.042Z,52.30
2022-10-08T15:58:49.762Z,52.70
2022-10-08T16:01:25.180Z,53.50
2022-10-08T16:04:00.339Z,54.20
2022-10-08T16:06:36.466Z,55.00
2022-10-08T16:09:10.381Z,55.30
2022-10-08T16:11:45.285Z,55.30
2022-10-08T16:14:22.218Z,56.50
2022-10-08T16:16:56.507Z,56.40
2022-10-08T16:19:30.725Z,56.40
2022-10-08T16:22:05.577Z,57.90
2022-10-08T16:24:39.659Z,58.50
2022-10-08T16:27:13.739Z,59.10
2022-10-08T16:29:49.403Z,59.80
2022-10-08T16:32:23.377Z,60.70
2022-10-08T16:34:57.287Z,60.00
2022-10-08T16:37:31.253Z,60.20
2022-10-08T16:40:05.475Z,60.70
2022-10-08T16:42:39.366Z,61.60
2022-10-08T16:45:14.771Z,62.10
2022-10-08T16:47:48.762Z,62.40
2022-10-08T16:50:22.743Z,62.50
2022-10-08T16:52:56.741Z,62.80
2022-10-08T16:55:30.743Z,62.20
2022-10-08T16:58:04.813Z,61.90
2022-10-08T17:00:40.174Z,61.50
2022-10-08T17:03:14.455Z,60.90
2022-10-08T17:05:48.986Z,60.60
2022-10-08T17:08:22.950Z,60.30
2022-10-08T17:10:57.069Z,60.00
2022-10-08T17:13:31.048Z,59.60
2022-10-08T17:16:07.761Z,59.00
2022-10-08T17:18:43.359Z,58.40
2022-10-08T17:21:17.326Z,57.90
2022-10-08T17:23:52.130Z,57.30
2022-10-08T17:26:27.771Z,57.00
2022-10-08T17:29:04.933Z,56.50
2022-10-08T17:31:40.929Z,56.20
2022-10-08T17:34:14.966Z,56.00
2022-10-08T17:36:48.924Z,55.90
2022-10-08T17:39:22.917Z,55.90
2022-10-08T17:41:57.318Z,56.00
2022-10-08T17:44:31.382Z,56.20
2022-10-08T17:47:07.940Z,56.20
2022-10-08T17:49:41.884Z,56.20
2022-10-08T17:52:15.903Z,56.30
2022-10-08T17:54:49.849Z,56.40
2022-10-08T17:57:23.999Z,57.00
2022-10-08T17:59:58.295Z,56.80
2022-10-08T18:02:34.207Z,56.30
2022-10-08T18:05:08.788Z,56.60
2022-10-08T18:07:43.237Z,56.80
2022-10-08T18:10:17.428Z,57.20
2022-10-08T18:12:51.426Z,57.50
2022-10-08T18:15:26.203Z,57.80
2022-10-08T18:18:01.452Z,57.90
2022-10-08T18:20:35.783Z,57.50
2022-10-08T18:23:12.107Z,57.00
2022-10-08T18:25:48.376Z,56.60
2022-10-08T18:28:24.255Z,56.60
2022-10-08T18:30:58.288Z,56.10
2022-10-08T18:33:34.142Z,55.30
2022-10-08T18:36:10.364Z,55.00
2022-10-08T18:38:45.911Z,54.20
2022-10-08T18:41:22.237Z,53.90
2022-10-08T18:43:56.642Z,53.60
2022-10-08T18:46:30.865Z,52.90
2022-10-08T18:49:07.319Z,52.50
2022-10-08T18:51:41.253Z,52.30
2022-10-08T18:54:15.081Z,52.30
2022-10-08T18:56:48.643Z,52.30
2022-10-08T18:59:22.543Z,52.70
2022-10-08T19:01:59.511Z,54.00
2022-10-08T19:04:35.042Z,55.00
2022-10-08T19:07:08.988Z,55.10
2022-10-08T19:09:42.888Z,55.00
2022-10-08T19:12:16.726Z,54.80
2022-10-08T19:14:50.998Z,54.80
2022-10-08T19:17:24.972Z,54.70
2022-10-08T19:20:00.251Z,54.40
2022-10-08T19:22:34.222Z,54.70
2022-10-08T19:25:08.827Z,54.70
2022-10-08T19:27:42.686Z,54.60
2022-10-08T19:30:21.301Z,53.90
2022-10-08T19:32:57.846Z,53.40
2022-10-08T19:35:33.426Z,53.70
2022-10-08T19:38:07.241Z,54.00
2022-10-08T19:40:40.880Z,53.50
2022-10-08T19:43:15.148Z,53.40
2022-10-08T19:45:49.174Z,53.40
2022-10-08T19:48:22.751Z,52.30
2022-10-08T19:50:58.130Z,52.20
2022-10-08T19:53:32.997Z,52.00
2022-10-08T19:56:10.064Z,52.00
2022-10-08T19:58:48.653Z,52.10
2022-10-08T20:01:24.909Z,52.40
2022-10-08T20:04:00.297Z,52.00
2022-10-08T20:06:39.538Z,51.80
2022-10-08T20:09:15.457Z,48.60
2022-10-08T20:11:49.351Z,48.90
2022-10-08T20:14:23.145Z,49.20
2022-10-08T20:16:56.660Z,49.50
2022-10-08T20:19:30.558Z,50.10
2022-10-08T20:22:10.895Z,50.00
2022-10-08T20:24:47.750Z,49.60
2022-10-08T20:27:21.701Z,49.90
2022-10-08T20:29:55.616Z,49.60
2022-10-08T20:32:33.205Z,49.80
2022-10-08T20:35:08.555Z,49.80
2022-10-08T20:37:44.021Z,49.80
2022-10-08T20:53:35.139Z,49.80
2022-10-08T20:59:51.662Z,49.60
2022-10-08T21:02:26.580Z,49.30
2022-10-08T21:05:00.552Z,49.30
2022-10-08T21:07:34.440Z,49.60
2022-10-08T21:10:11.231Z,48.30
2022-10-08T21:12:45.384Z,48.00
2022-10-08T21:15:19.608Z,47.80
2022-10-08T21:17:53.466Z,48.00
2022-10-08T21:20:27.384Z,48.10
2022-10-08T21:23:01.224Z,48.20
2022-10-08T21:25:36.534Z,48.20
2022-10-08T21:28:10.436Z,48.30
2022-10-08T21:30:44.404Z,48.40
2022-10-08T21:33:18.297Z,48.30
2022-10-08T21:35:52.158Z,48.30
2022-10-08T21:38:26.302Z,48.30
2022-10-08T21:41:03.602Z,48.40
2022-10-08T21:43:37.554Z,48.60
2022-10-08T21:46:12.843Z,48.60
2022-10-08T21:48:47.745Z,48.60
2022-10-08T21:51:22.089Z,48.60
2022-10-08T21:53:58.656Z,48.40
2022-10-08T21:56:35.880Z,48.50
2022-10-08T21:59:12.435Z,48.50
2022-10-08T22:01:48.003Z,48.60
2022-10-08T22:04:23.839Z,48.70
2022-10-08T22:06:59.768Z,48.60
2022-10-08T22:09:35.120Z,48.50
2022-10-08T22:12:10.716Z,48.60
2022-10-08T22:14:44.720Z,48.50
2022-10-08T22:17:18.941Z,48.60
2022-10-08T22:19:52.814Z,48.50
2022-10-08T22:22:26.756Z,48.50
2022-10-08T22:25:00.639Z,48.40
2022-10-08T22:27:35.950Z,48.40
2022-10-08T22:30:11.505Z,48.40
2022-10-08T22:32:46.080Z,48.30
2022-10-08T22:35:20.330Z,48.30
2022-10-08T22:37:54.365Z,48.40
2022-10-08T22:40:28.511Z,48.30
2022-10-08T22:43:04.034Z,48.30
2022-10-08T22:45:39.615Z,48.20
2022-10-08T22:48:13.531Z,48.20
2022-10-08T22:50:47.505Z,48.10
2022-10-08T22:53:22.092Z,48.20
2022-10-08T22:55:56.162Z,48.10
2022-10-08T22:58:31.525Z,48.10
2022-10-08T23:01:07.967Z,47.90
2022-10-08T23:03:42.065Z,47.80
2022-10-08T23:06:17.666Z,47.70
2022-10-08T23:08:55.327Z,47.70
2022-10-08T23:11:31.593Z,47.80
2022-10-08T23:14:07.870Z,47.80
2022-10-08T23:16:42.012Z,47.70
2022-10-08T23:19:16.887Z,47.70
2022-10-08T23:21:50.911Z,47.50
2022-10-08T23:24:24.945Z,47.30
2022-10-08T23:26:58.926Z,47.30
2022-10-08T23:29:34.237Z,47.40
2022-10-08T23:32:08.348Z,47.40
2022-10-08T23:34:42.318Z,47.40
2022-10-08T23:37:16.286Z,47.30
2022-10-08T23:39:53.236Z,47.30
2022-10-08T23:42:29.618Z,47.30
2022-10-08T23:45:05.336Z,47.30
2022-10-08T23:47:39.568Z,47.30
2022-10-08T23:50:13.546Z,47.30
2022-10-08T23:52:47.677Z,47.40
2022-10-08T23:55:21.857Z,47.50
2022-10-08T23:57:55.906Z,47.50
